createdAt,value
2022-12-01T00:01:08.364Z,19.40
2022-12-01T00:03:35.279Z,19.65
2022-12-01T00:06:16.329Z,19.90
2022-12-01T00:09:03.080Z,20.77
2022-12-01T00:11:29.448Z,19.77
2022-12-01T00:13:55.799Z,20.08
2022-12-01T00:16:22.201Z,18.75
2022-12-01T00:18:53.017Z,19.88
2022-12-01T00:21:21.990Z,19.58
2022-12-01T00:23:51.197Z,19.75
2022-12-01T00:26:18.611Z,19.42
2022-12-01T00:28:49.268Z,20.30
2022-12-01T00:31:15.677Z,20.08
2022-12-01T00:33:42.117Z,20.75
2022-12-01T00:36:08.814Z,20.05
2022-12-01T00:38:35.760Z,18.50
2022-12-01T00:41:02.933Z,19.00
2022-12-01T00:43:29.524Z,19.55
2022-12-01T00:45:56.537Z,19.48
2022-12-01T00:48:23.708Z,18.25
2022-12-01T00:50:52.277Z,19.50
2022-12-01T00:53:19.168Z,18.40
2022-12-01T00:55:45.723Z,19.40
2022-12-01T00:58:12.034Z,19.77
2022-12-01T01:00:42.782Z,20.92
2022-12-01T01:03:10.246Z,20.05
2022-12-01T01:05:37.931Z,20.40
2022-12-01T01:08:09.207Z,20.77
2022-12-01T01:10:43.297Z,21.50
2022-12-01T01:13:10.393Z,21.40
2022-12-01T01:15:37.068Z,22.77
2022-12-01T01:18:04.261Z,21.63
2022-12-01T01:20:31.305Z,22.45
2022-12-01T01:22:58.175Z,21.23
2022-12-01T01:25:24.518Z,21.90
2022-12-01T01:27:51.553Z,21.45
2022-12-01T01:30:18.416Z,20.40
2022-12-01T01:32:45.052Z,20.75
2022-12-01T01:35:11.384Z,21.20
2022-12-01T01:37:37.841Z,23.08
2022-12-01T01:40:04.837Z,22.20
2022-12-01T01:42:31.286Z,21.92
2022-12-01T01:44:58.936Z,22.40
2022-12-01T01:47:33.166Z,23.48
2022-12-01T01:50:09.028Z,24.13
2022-12-01T01:55:03.130Z,21.52
2022-12-01T01:57:33.204Z,22.38
2022-12-01T02:00:07.764Z,22.38
2022-12-01T02:02:40.454Z,22.02
2022-12-01T02:05:12.004Z,23.65
2022-12-01T02:07:40.055Z,22.50
2022-12-01T02:10:12.415Z,22.92
2022-12-01T02:13:17.149Z,21.95
2022-12-01T02:15:55.370Z,21.30
2022-12-01T02:18:38.774Z,21.83
2022-12-01T02:21:20.196Z,21.30
2022-12-01T02:23:49.501Z,20.80
2022-12-01T02:26:36.217Z,21.98
2022-12-01T02:29:33.221Z,21.95
2022-12-01T02:32:28.819Z,21.73
2022-12-01T02:35:02.908Z,20.42
2022-12-01T02:38:00.195Z,21.52
2022-12-01T02:40:53.156Z,21.25
2022-12-01T02:43:50.506Z,22.98
2022-12-01T02:46:39.188Z,24.15
2022-12-01T02:49:13.121Z,23.05
2022-12-01T02:51:44.682Z,24.45
2022-12-01T02:54:13.425Z,24.98
2022-12-01T02:56:39.927Z,24.33
2022-12-01T02:59:14.792Z,24.08
2022-12-01T03:01:50.887Z,26.00
2022-12-01T03:04:23.184Z,25.42
2022-12-01T03:07:15.532Z,24.13
2022-12-01T03:09:57.141Z,23.48
2022-12-01T03:12:35.441Z,22.90
2022-12-01T03:15:09.215Z,23.48
2022-12-01T03:17:42.711Z,23.63
2022-12-01T03:20:23.910Z,21.80
2022-12-01T03:22:55.440Z,22.25
2022-12-01T03:25:24.602Z,22.75
2022-12-01T03:28:20.589Z,23.05
2022-12-01T03:30:44.941Z,23.90
2022-12-01T03:33:20.412Z,24.35
2022-12-01T03:36:08.286Z,24.42
2022-12-01T03:38:36.859Z,24.85
2022-12-01T03:41:13.222Z,24.20
2022-12-01T03:43:45.230Z,25.45
2022-12-01T03:46:21.922Z,25.02
2022-12-01T03:48:48.430Z,25.65
2022-12-01T03:51:31.500Z,26.00
2022-12-01T03:54:13.094Z,25.80
2022-12-01T03:56:46.583Z,24.73
2022-12-01T03:59:16.226Z,25.85
2022-12-01T04:01:42.751Z,24.58
2022-12-01T04:04:11.777Z,25.10
2022-12-01T04:06:40.760Z,25.92
2022-12-01T04:09:07.105Z,25.65
2022-12-01T04:11:52.439Z,26.73
2022-12-01T04:14:18.836Z,26.70
2022-12-01T04:16:45.134Z,27.75
2022-12-01T04:19:11.638Z,25.63
2022-12-01T04:21:38.177Z,26.98
2022-12-01T04:24:04.678Z,25.60
2022-12-01T04:26:34.038Z,26.20
2022-12-01T04:29:02.023Z,26.05
2022-12-01T04:31:28.686Z,24.98
2022-12-01T04:33:56.168Z,26.85
2022-12-01T04:36:24.052Z,27.17
2022-12-01T04:38:50.896Z,27.58
2022-12-01T04:41:19.553Z,26.48
2022-12-01T04:43:46.010Z,26.27
2022-12-01T04:46:12.509Z,24.70
2022-12-01T04:48:39.455Z,23.42
2022-12-01T04:51:07.870Z,21.55
2022-12-01T04:53:35.385Z,22.48
2022-12-01T04:56:02.385Z,21.83
2022-12-01T04:58:29.709Z,21.75
2022-12-01T05:01:02.901Z,20.35
2022-12-01T05:03:29.344Z,22.27
2022-12-01T05:06:16.265Z,22.50
2022-12-01T05:08:42.699Z,21.33
2022-12-01T05:11:12.111Z,20.92
2022-12-01T05:13:43.705Z,20.80
2022-12-01T05:16:15.883Z,20.27
2022-12-01T05:18:42.739Z,21.45
2022-12-01T05:21:10.656Z,21.60
2022-12-01T05:23:38.459Z,20.05
2022-12-01T05:26:06.836Z,19.55
2022-12-01T05:28:33.319Z,19.52
2022-12-01T05:30:59.759Z,19.63
2022-12-01T05:33:26.996Z,18.75
2022-12-01T05:35:53.686Z,19.15
2022-12-01T05:38:20.655Z,16.90
2022-12-01T05:40:54.883Z,19.17
2022-12-01T05:43:28.361Z,19.75
2022-12-01T05:45:55.758Z,18.67
2022-12-01T05:48:22.251Z,19.10
2022-12-01T05:50:48.571Z,19.05
2022-12-01T05:53:15.608Z,19.88
2022-12-01T05:55:42.025Z,18.00
2022-12-01T05:58:09.132Z,19.05
2022-12-01T06:00:38.518Z,19.67
2022-12-01T06:03:08.672Z,20.40
2022-12-01T06:05:34.982Z,21.02
2022-12-01T06:08:01.615Z,20.77
2022-12-01T06:10:28.037Z,20.42
2022-12-01T06:12:54.406Z,20.00
2022-12-01T06:15:20.755Z,20.95
2022-12-01T06:17:47.284Z,21.08
2022-12-01T06:20:13.712Z,21.73
2022-12-01T06:22:40.136Z,19.95
2022-12-01T06:25:07.174Z,20.67
2022-12-01T06:27:33.493Z,20.50
2022-12-01T06:29:59.805Z,20.65
2022-12-01T06:32:26.107Z,20.23
2022-12-01T06:34:52.483Z,20.38
2022-12-01T06:37:18.861Z,19.45
2022-12-01T06:39:45.221Z,19.30
2022-12-01T06:42:11.981Z,20.17
2022-12-01T06:44:38.782Z,18.90
2022-12-01T06:47:05.184Z,18.63
2022-12-01T06:49:31.558Z,18.63
2022-12-01T06:52:00.711Z,17.40
2022-12-01T06:54:27.329Z,16.58
2022-12-01T06:56:53.694Z,16.17
2022-12-01T06:59:20.134Z,16.42
2022-12-01T07:01:46.827Z,16.52
2022-12-01T07:04:13.501Z,16.73
2022-12-01T07:06:39.786Z,17.17
2022-12-01T07:09:06.105Z,17.02
2022-12-01T07:11:32.503Z,17.65
2022-12-01T07:13:58.869Z,18.42
2022-12-01T07:16:25.443Z,19.75
2022-12-01T07:18:52.531Z,22.38
2022-12-01T07:21:18.845Z,25.98
2022-12-01T07:23:45.199Z,26.20
2022-12-01T07:26:17.150Z,28.42
2022-12-01T07:28:44.736Z,28.23
2022-12-01T07:31:16.701Z,29.27
2022-12-01T07:33:43.159Z,29.65
2022-12-01T07:36:11.547Z,32.65
2022-12-01T07:38:38.904Z,32.38
2022-12-01T07:41:07.658Z,31.55
2022-12-01T07:43:34.625Z,32.03
2022-12-01T07:46:27.800Z,32.50
2022-12-01T07:48:55.446Z,33.33
2022-12-01T07:51:23.550Z,33.13
2022-12-01T07:53:51.189Z,33.70
2022-12-01T07:56:18.839Z,31.77
2022-12-01T07:58:45.348Z,32.38
2022-12-01T08:01:15.009Z,32.97
2022-12-01T08:03:42.294Z,31.77
2022-12-01T08:06:09.625Z,33.25
2022-12-01T08:08:37.859Z,33.78
2022-12-01T08:11:07.890Z,33.03
2022-12-01T08:13:34.645Z,32.58
2022-12-01T08:16:04.684Z,31.80
2022-12-01T08:18:31.115Z,31.98
2022-12-01T08:21:00.282Z,33.97
2022-12-01T08:23:26.644Z,32.50
2022-12-01T08:25:53.050Z,33.03
2022-12-01T08:28:20.163Z,33.47
2022-12-01T08:30:47.183Z,33.90
2022-12-01T08:33:13.576Z,33.75
2022-12-01T08:35:39.909Z,34.85
2022-12-01T08:38:06.258Z,35.65
2022-12-01T08:40:32.593Z,33.78
2022-12-01T08:42:58.938Z,36.35
2022-12-01T08:45:25.272Z,36.78
2022-12-01T08:47:53.234Z,37.08
2022-12-01T08:50:19.577Z,39.13
2022-12-01T08:52:46.074Z,37.80
2022-12-01T08:55:24.433Z,38.25
2022-12-01T08:57:50.743Z,38.58
2022-12-01T09:00:17.240Z,39.38
2022-12-01T09:02:43.595Z,41.08
2022-12-01T09:05:10.128Z,41.83
2022-12-01T09:07:36.612Z,40.10
2022-12-01T09:10:03.680Z,40.95
2022-12-01T09:12:30.169Z,38.13
2022-12-01T09:14:56.602Z,43.13
2022-12-01T09:17:23.643Z,41.78
2022-12-01T09:19:50.208Z,41.38
2022-12-01T09:22:16.833Z,41.67
2022-12-01T09:24:43.180Z,40.72
2022-12-01T09:27:10.037Z,40.30
2022-12-01T09:29:36.486Z,39.65
2022-12-01T09:32:03.029Z,39.00
2022-12-01T09:34:29.363Z,38.60
2022-12-01T09:36:57.594Z,41.17
2022-12-01T09:39:25.013Z,40.85
2022-12-01T09:41:59.797Z,39.55
2022-12-01T09:44:50.709Z,40.58
2022-12-01T09:47:26.198Z,39.53
2022-12-01T09:50:13.151Z,38.45
2022-12-01T09:53:08.121Z,39.33
2022-12-01T09:55:35.345Z,38.58
2022-12-01T09:58:04.128Z,39.67
2022-12-01T10:00:34.188Z,37.75
2022-12-01T10:03:13.935Z,38.85
2022-12-01T10:06:25.946Z,38.97
2022-12-01T10:08:46.983Z,39.25
2022-12-01T10:11:24.835Z,39.13
2022-12-01T10:13:51.159Z,38.42
2022-12-01T10:16:26.458Z,36.72
2022-12-01T10:19:15.385Z,36.60
2022-12-01T10:22:07.126Z,38.22
2022-12-01T10:24:47.745Z,37.45
2022-12-01T10:27:32.281Z,37.55
2022-12-01T10:30:04.084Z,36.70
2022-12-01T10:32:51.071Z,36.60
2022-12-01T10:35:19.480Z,36.33
2022-12-01T10:37:47.292Z,36.08
2022-12-01T10:40:15.746Z,39.75
2022-12-01T10:42:47.894Z,38.50
2022-12-01T10:45:16.194Z,39.17
2022-12-01T10:48:18.129Z,39.88
2022-12-01T10:50:47.370Z,36.45
2022-12-01T10:53:22.883Z,36.70
2022-12-01T10:56:04.536Z,36.47
2022-12-01T10:58:34.418Z,36.80
2022-12-01T11:01:05.507Z,36.95
2022-12-01T11:03:34.721Z,36.33
2022-12-01T11:06:03.155Z,38.17
2022-12-01T11:08:46.714Z,38.88
2022-12-01T11:11:36.671Z,36.35
2022-12-01T11:14:07.188Z,38.10
2022-12-01T11:16:42.882Z,37.85
2022-12-01T11:21:54.726Z,34.33
2022-12-01T11:24:43.924Z,36.85
2022-12-01T11:27:17.478Z,36.70
2022-12-01T11:29:46.262Z,37.28
2022-12-01T11:32:29.054Z,38.25
2022-12-01T11:34:59.775Z,40.30
2022-12-01T11:37:50.487Z,39.65
2022-12-01T11:40:30.586Z,37.88
2022-12-01T11:43:00.635Z,39.22
2022-12-01T11:45:32.248Z,37.80
2022-12-01T11:48:04.359Z,39.35
2022-12-01T11:50:34.046Z,39.15
2022-12-01T11:53:01.953Z,37.80
2022-12-01T11:55:30.768Z,39.83
2022-12-01T11:58:14.815Z,41.25
2022-12-01T12:00:54.865Z,41.35
2022-12-01T12:03:35.115Z,40.17
2022-12-01T12:06:18.227Z,41.38
2022-12-01T12:09:08.189Z,39.08
2022-12-01T12:11:42.113Z,40.28
2022-12-01T12:14:17.657Z,39.60
2022-12-01T12:16:58.535Z,40.53
2022-12-01T12:20:07.106Z,39.65
2022-12-01T12:23:10.588Z,39.80
2022-12-01T12:26:03.360Z,39.30
2022-12-01T12:28:54.865Z,39.78
2022-12-01T12:31:52.123Z,39.53
2022-12-01T12:34:50.851Z,39.78
2022-12-01T12:37:40.016Z,41.13
2022-12-01T12:40:08.986Z,42.30
2022-12-01T12:42:57.131Z,39.63
2022-12-01T12:45:50.390Z,41.65
2022-12-01T12:48:57.271Z,39.80
2022-12-01T12:51:38.266Z,39.90
2022-12-01T12:54:13.649Z,39.85
2022-12-01T12:56:46.037Z,38.58
2022-12-01T12:59:24.350Z,38.63
2022-12-01T13:02:09.493Z,39.20
2022-12-01T13:04:59.532Z,38.03
2022-12-01T13:07:37.222Z,37.55
2022-12-01T13:10:15.956Z,38.03
2022-12-01T13:12:51.219Z,36.83
2022-12-01T13:15:20.489Z,38.42
2022-12-01T13:17:58.353Z,38.13
2022-12-01T13:20:27.757Z,37.97
2022-12-01T13:22:58.570Z,39.38
2022-12-01T13:25:34.273Z,38.72
2022-12-01T13:28:03.134Z,37.95
2022-12-01T13:30:29.680Z,37.55
2022-12-01T13:33:02.485Z,39.17
2022-12-01T13:35:31.641Z,36.78
2022-12-01T13:38:30.183Z,36.35
2022-12-01T13:41:24.322Z,36.20
2022-12-01T13:44:04.168Z,37.67
2022-12-01T13:46:32.337Z,35.25
2022-12-01T13:49:03.054Z,36.72
2022-12-01T13:52:08.258Z,38.60
2022-12-01T13:54:36.802Z,34.97
2022-12-01T13:57:10.642Z,35.90
2022-12-01T13:59:59.375Z,36.75
2022-12-01T14:02:34.601Z,35.22
2022-12-01T14:05:23.032Z,35.55
2022-12-01T14:07:53.919Z,34.28
2022-12-01T14:10:27.272Z,35.10
2022-12-01T14:12:57.593Z,32.85
2022-12-01T14:15:30.057Z,33.53
2022-12-01T14:18:18.194Z,33.55
2022-12-01T14:20:46.643Z,32.20
2022-12-01T14:23:33.801Z,34.50
2022-12-01T14:26:23.243Z,30.90
2022-12-01T14:28:55.835Z,33.78
2022-12-01T14:31:23.763Z,33.78
2022-12-01T14:34:03.113Z,31.42
2022-12-01T14:36:54.468Z,35.08
2022-12-01T14:39:30.839Z,32.63
2022-12-01T14:42:01.884Z,34.72
2022-12-01T14:44:37.832Z,33.72
2022-12-01T14:47:10.345Z,34.00
2022-12-01T14:49:47.258Z,33.95
2022-12-01T14:52:23.432Z,33.42
2022-12-01T14:54:51.210Z,34.00
2022-12-01T14:57:23.585Z,33.83
2022-12-01T15:00:10.966Z,33.88
2022-12-01T15:02:56.998Z,33.88
2022-12-01T15:05:27.261Z,33.50
2022-12-01T15:08:40.342Z,33.30
2022-12-01T15:11:06.411Z,33.00
2022-12-01T15:13:53.210Z,33.05
2022-12-01T15:16:22.943Z,32.58
2022-12-01T15:18:49.935Z,33.05
2022-12-01T15:21:20.753Z,33.08
2022-12-01T15:24:04.757Z,35.30
2022-12-01T15:26:36.636Z,39.15
2022-12-01T15:29:16.133Z,35.85
2022-12-01T15:31:46.828Z,35.80
2022-12-01T15:34:36.328Z,37.65
2022-12-01T15:37:05.318Z,37.05
2022-12-01T15:39:35.367Z,36.95
2022-12-01T15:42:03.047Z,36.45
2022-12-01T15:44:37.256Z,35.95
2022-12-01T15:47:41.044Z,35.75
2022-12-01T15:50:46.147Z,37.30
2022-12-01T15:53:32.765Z,37.67
2022-12-01T15:56:02.124Z,37.38
2022-12-01T15:58:31.523Z,37.15
2022-12-01T16:01:29.693Z,36.22
2022-12-01T16:04:04.242Z,35.58
2022-12-01T16:06:34.197Z,33.40
2022-12-01T16:09:03.774Z,37.72
2022-12-01T16:11:30.768Z,35.13
2022-12-01T16:14:01.800Z,37.40
2022-12-01T16:16:54.590Z,39.08
2022-12-01T16:19:26.310Z,38.30
2022-12-01T16:21:59.813Z,37.80
2022-12-01T16:24:30.603Z,37.17
2022-12-01T16:27:04.184Z,35.80
2022-12-01T16:29:43.878Z,33.65
2022-12-01T16:32:32.222Z,33.25
2022-12-01T16:34:59.161Z,31.02
2022-12-01T16:37:26.835Z,32.40
2022-12-01T16:39:53.281Z,31.05
2022-12-01T16:42:21.317Z,32.63
2022-12-01T16:44:48.845Z,34.08
2022-12-01T16:47:21.838Z,34.53
2022-12-01T16:49:48.737Z,35.08
2022-12-01T16:52:43.140Z,33.65
2022-12-01T16:55:02.001Z,36.47
2022-12-01T16:57:28.334Z,34.67
2022-12-01T16:59:54.740Z,33.92
2022-12-01T17:02:21.153Z,35.50
2022-12-01T17:04:47.813Z,35.15
2022-12-01T17:07:14.383Z,35.38
2022-12-01T17:09:40.712Z,34.55
2022-12-01T17:12:07.243Z,35.00
2022-12-01T17:14:33.642Z,33.35
2022-12-01T17:17:02.082Z,34.70
2022-12-01T17:19:28.399Z,33.45
2022-12-01T17:21:58.297Z,34.47
2022-12-01T17:24:25.803Z,34.45
2022-12-01T17:26:52.167Z,34.20
2022-12-01T17:29:19.728Z,35.10
2022-12-01T17:31:47.186Z,34.17
2022-12-01T17:34:13.564Z,34.00
2022-12-01T17:36:41.116Z,31.73
2022-12-01T17:39:07.504Z,31.88
2022-12-01T17:41:35.716Z,29.58
2022-12-01T17:44:04.119Z,32.20
2022-12-01T17:46:31.421Z,31.33
2022-12-01T17:48:59.216Z,31.98
2022-12-01T17:51:25.643Z,30.92
2022-12-01T17:53:53.710Z,29.42
2022-12-01T17:56:20.058Z,31.33
2022-12-01T17:58:49.000Z,31.52
2022-12-01T18:01:17.439Z,32.33
2022-12-01T18:03:44.582Z,32.13
2022-12-01T18:06:12.068Z,31.15
2022-12-01T18:08:39.760Z,27.65
2022-12-01T18:11:09.821Z,27.48
2022-12-01T18:13:41.835Z,26.88
2022-12-01T18:16:10.326Z,27.15
2022-12-01T18:18:37.487Z,25.30
2022-12-01T18:21:12.863Z,25.30
2022-12-01T18:23:39.576Z,24.50
2022-12-01T18:26:15.214Z,24.58
2022-12-01T18:28:42.702Z,24.50
2022-12-01T18:31:12.033Z,24.08
2022-12-01T18:33:40.303Z,23.20
2022-12-01T18:36:16.677Z,25.35
2022-12-01T18:38:43.675Z,24.83
2022-12-01T18:41:10.045Z,25.65
2022-12-01T18:43:36.580Z,25.00
2022-12-01T18:46:04.606Z,25.73
2022-12-01T18:48:31.122Z,26.98
2022-12-01T18:51:04.444Z,26.13
2022-12-01T18:53:31.406Z,27.48
2022-12-01T18:56:03.220Z,28.83
2022-12-01T18:58:30.087Z,30.42
2022-12-01T19:00:56.756Z,27.83
2022-12-01T19:03:23.306Z,28.70
2022-12-01T19:05:49.677Z,27.02
2022-12-01T19:08:16.219Z,28.30
2022-12-01T19:10:42.646Z,27.33
2022-12-01T19:13:09.051Z,28.60
2022-12-01T19:15:38.501Z,28.05
2022-12-01T19:18:04.968Z,27.85
2022-12-01T19:20:31.305Z,27.00
2022-12-01T19:22:57.812Z,28.90
2022-12-01T19:25:24.202Z,28.75
2022-12-01T19:27:53.071Z,30.33
2022-12-01T19:30:19.542Z,30.10
2022-12-01T19:32:46.091Z,32.35
2022-12-01T19:35:12.469Z,31.50
2022-12-01T19:37:38.830Z,32.55
2022-12-01T19:40:05.774Z,30.67
2022-12-01T19:42:32.176Z,31.15
2022-12-01T19:44:58.931Z,31.85
2022-12-01T19:47:25.245Z,30.40
2022-12-01T19:49:51.576Z,30.88
2022-12-01T19:52:17.886Z,29.52
2022-12-01T19:54:44.190Z,31.52
2022-12-01T19:57:10.682Z,28.48
2022-12-01T19:59:37.034Z,29.70
2022-12-01T20:02:03.442Z,29.70
2022-12-01T20:04:29.990Z,30.13
2022-12-01T20:06:56.332Z,30.83
2022-12-01T20:09:22.702Z,30.25
2022-12-01T20:11:49.295Z,29.23
2022-12-01T20:14:15.795Z,29.80
2022-12-01T20:16:42.311Z,29.00
2022-12-01T20:19:08.858Z,30.15
2022-12-01T20:21:42.982Z,29.05
2022-12-01T20:24:15.136Z,29.08
2022-12-01T20:26:45.282Z,30.75
2022-12-01T20:29:14.729Z,29.67
2022-12-01T20:31:42.219Z,31.48
2022-12-01T20:34:13.886Z,31.23
2022-12-01T20:36:40.878Z,32.22
2022-12-01T20:39:08.294Z,30.48
2022-12-01T20:41:35.479Z,30.40
2022-12-01T20:44:07.015Z,30.95
2022-12-01T20:46:34.410Z,29.15
2022-12-01T20:49:00.890Z,27.73
2022-12-01T20:51:27.725Z,29.88
2022-12-01T20:54:19.655Z,29.77
2022-12-01T21:03:59.474Z,22.58
2022-12-01T21:06:25.924Z,25.42
2022-12-01T21:08:52.274Z,26.85
2022-12-01T21:11:43.908Z,29.40
2022-12-01T21:14:21.994Z,29.42
2022-12-01T21:16:49.142Z,29.75
2022-12-01T21:19:25.836Z,28.90
2022-12-01T21:21:52.237Z,28.55
2022-12-01T21:24:22.108Z,28.77
2022-12-01T21:26:54.525Z,30.10
2022-12-01T21:29:24.963Z,28.83
2022-12-01T21:31:53.518Z,29.27
2022-12-01T21:34:25.457Z,28.90
2022-12-01T21:36:56.067Z,28.13
2022-12-01T21:39:23.948Z,29.67
2022-12-01T21:41:54.729Z,29.05
2022-12-01T21:44:22.476Z,29.55
2022-12-01T21:46:53.317Z,29.67
2022-12-01T21:49:21.858Z,30.35
2022-12-01T21:51:51.809Z,29.15
2022-12-01T21:54:20.679Z,30.55
2022-12-01T21:56:48.643Z,29.15
2022-12-01T21:59:22.906Z,28.50
2022-12-01T22:01:54.084Z,29.05
2022-12-01T22:04:26.071Z,28.13
2022-12-01T22:06:54.470Z,26.27
2022-12-01T22:09:33.051Z,28.40
2022-12-01T22:12:22.825Z,27.17
2022-12-01T22:14:50.095Z,28.58
2022-12-01T22:17:20.526Z,28.92
2022-12-01T22:19:55.194Z,29.88
2022-12-01T22:22:27.073Z,28.02
2022-12-01T22:25:25.207Z,30.27
2022-12-01T22:27:51.932Z,27.98
2022-12-01T22:30:23.430Z,28.42
2022-12-01T22:33:01.046Z,28.17
2022-12-01T22:35:42.666Z,28.15
2022-12-01T22:38:09.000Z,28.40
2022-12-01T22:40:38.224Z,29.20
2022-12-01T22:43:26.533Z,29.10
2022-12-01T22:46:02.760Z,29.15
2022-12-01T22:48:46.621Z,28.15
2022-12-01T22:51:12.906Z,28.08
2022-12-01T22:53:40.510Z,28.42
2022-12-01T22:56:40.151Z,27.52
2022-12-01T22:59:14.889Z,25.13
2022-12-01T23:01:52.428Z,25.52
2022-12-01T23:04:38.454Z,25.77
2022-12-01T23:07:27.453Z,26.60
2022-12-01T23:09:56.655Z,25.00
2022-12-01T23:12:25.922Z,25.35
2022-12-01T23:14:55.190Z,25.38
2022-12-01T23:17:26.009Z,24.70
2022-12-01T23:20:02.019Z,24.95
2022-12-01T23:22:28.333Z,25.52
2022-12-01T23:24:54.709Z,25.90
2022-12-01T23:27:21.060Z,23.98
2022-12-01T23:29:47.501Z,25.20
2022-12-01T23:32:13.837Z,25.20
2022-12-01T23:34:40.202Z,25.52
2022-12-01T23:37:26.707Z,24.90
2022-12-01T23:39:53.053Z,26.13
2022-12-01T23:42:19.665Z,26.58
2022-12-01T23:44:45.989Z,25.40
2022-12-01T23:47:28.722Z,25.42
2022-12-01T23:50:01.453Z,24.73
2022-12-01T23:52:34.977Z,24.30
2022-12-01T23:55:07.485Z,24.25
2022-12-01T23:57:35.828Z,24.83
